createdAt,value
2023-03-01T00:00:38.719Z,44.63
2023-03-01T00:04:51.212Z,45.25
2023-03-01T00:09:03.939Z,44.68
2023-03-01T00:13:16.877Z,44.75
2023-03-01T00:17:31.387Z,44.94
2023-03-01T00:21:44.055Z,44.61
2023-03-01T00:25:58.953Z,44.99
2023-03-01T00:30:12.162Z,44.57
2023-03-01T00:34:24.572Z,44.88
2023-03-01T00:38:40.521Z,44.44
2023-03-01T00:42:53.139Z,44.63
2023-03-01T00:47:05.566Z,43.83
2023-03-01T00:51:19.991Z,44.42
2023-03-01T00:55:32.522Z,44.57
2023-03-01T00:59:45.655Z,45.02
2023-03-01T01:04:01.228Z,45.19
2023-03-01T01:08:13.764Z,45.71
2023-03-01T01:12:26.205Z,45.17
2023-03-01T01:16:38.631Z,45.86
2023-03-01T01:20:51.027Z,45.17
2023-03-01T01:25:03.708Z,45.44
2023-03-01T01:29:16.394Z,45.65
2023-03-01T01:33:29.226Z,45.42
2023-03-01T01:37:41.607Z,44.83
2023-03-01T01:41:54.061Z,45.67
2023-03-01T01:46:19.907Z,46.26
2023-03-01T01:50:39.047Z,45.15
2023-03-01T01:54:59.220Z,44.64
2023-03-01T01:59:12.473Z,45.60
2023-03-01T02:03:30.192Z,45.69
2023-03-01T02:07:43.782Z,46.08
2023-03-01T02:11:56.390Z,45.80
2023-03-01T02:16:15.599Z,45.41
2023-03-01T02:20:32.814Z,46.13
2023-03-01T02:24:50.845Z,44.99
2023-03-01T02:29:03.266Z,45.92
2023-03-01T02:33:16.671Z,44.76
2023-03-01T02:37:32.142Z,45.15
2023-03-01T02:41:49.803Z,45.36
2023-03-01T02:46:09.001Z,45.57
2023-03-01T02:50:30.633Z,45.61
2023-03-01T02:55:14.310Z,44.55
2023-03-01T02:59:32.981Z,44.80
2023-03-01T03:03:45.997Z,45.33
2023-03-01T03:08:01.394Z,45.87
2023-03-01T03:12:16.112Z,45.51
2023-03-01T03:16:28.971Z,46.09
2023-03-01T03:20:43.192Z,45.61
2023-03-01T03:24:55.543Z,45.86
2023-03-01T03:29:09.127Z,45.52
2023-03-01T03:33:21.550Z,45.36
2023-03-01T03:37:52.137Z,44.74
2023-03-01T03:42:04.472Z,45.88
2023-03-01T03:46:18.255Z,45.42
2023-03-01T03:50:30.740Z,45.33
2023-03-01T03:54:43.102Z,46.26
2023-03-01T03:58:55.509Z,45.30
2023-03-01T04:03:08.204Z,45.47
2023-03-01T04:07:20.668Z,45.80
2023-03-01T04:11:34.025Z,46.78
2023-03-01T04:15:46.674Z,46.24
2023-03-01T04:20:00.199Z,46.12
2023-03-01T04:24:13.689Z,46.27
2023-03-01T04:28:28.536Z,45.76
2023-03-01T04:32:41.031Z,46.38
2023-03-01T04:36:54.566Z,45.58
2023-03-01T04:41:14.609Z,45.45
2023-03-01T04:45:27.182Z,45.43
2023-03-01T04:49:40.012Z,46.33
2023-03-01T04:53:52.452Z,46.62
2023-03-01T04:58:05.845Z,47.24
2023-03-01T05:02:18.228Z,46.88
2023-03-01T05:06:30.884Z,47.16
2023-03-01T05:10:43.372Z,46.53
2023-03-01T05:14:55.684Z,47.59
2023-03-01T05:19:16.397Z,47.11
2023-03-01T05:23:30.241Z,46.56
2023-03-01T05:27:42.826Z,46.64
2023-03-01T05:32:16.979Z,46.49
2023-03-01T05:36:29.834Z,46.03
2023-03-01T05:40:47.149Z,46.63
2023-03-01T05:44:59.504Z,46.07
2023-03-01T05:49:14.615Z,46.73
2023-03-01T05:53:27.801Z,46.93
2023-03-01T05:57:40.179Z,46.59
2023-03-01T06:01:52.554Z,45.72
2023-03-01T06:06:05.103Z,45.76
2023-03-01T06:10:18.844Z,45.67
2023-03-01T06:14:31.421Z,46.05
2023-03-01T06:18:44.243Z,45.65
2023-03-01T06:22:57.462Z,45.39
2023-03-01T06:27:10.171Z,45.63
2023-03-01T06:31:23.575Z,45.26
2023-03-01T06:35:36.350Z,45.12
2023-03-01T06:39:48.894Z,45.45
2023-03-01T06:44:01.406Z,45.50
2023-03-01T06:48:13.790Z,45.17
2023-03-01T06:52:26.312Z,45.32
2023-03-01T06:56:38.706Z,44.80
2023-03-01T07:00:51.215Z,45.18
2023-03-01T07:05:03.816Z,44.61
2023-03-01T07:09:20.960Z,44.58
2023-03-01T07:13:33.587Z,44.23
2023-03-01T07:17:48.848Z,43.88
2023-03-01T07:22:01.274Z,43.50
2023-03-01T07:26:13.700Z,42.91
2023-03-01T07:30:29.794Z,42.26
2023-03-01T07:34:42.364Z,43.35
2023-03-01T07:38:56.906Z,42.50
2023-03-01T07:43:09.285Z,41.78
2023-03-01T07:47:21.728Z,43.10
2023-03-01T07:51:34.055Z,42.68
2023-03-01T07:55:46.338Z,42.17
2023-03-01T07:59:58.737Z,42.45
2023-03-01T08:04:11.811Z,42.94
2023-03-01T08:08:24.223Z,42.48
2023-03-01T08:12:36.699Z,42.57
2023-03-01T08:16:51.383Z,42.11
2023-03-01T08:21:08.123Z,41.61
2023-03-01T08:25:20.534Z,40.62
2023-03-01T08:29:34.109Z,40.87
2023-03-01T08:33:56.402Z,39.50
2023-03-01T08:38:08.868Z,40.04
2023-03-01T08:42:21.246Z,39.54
2023-03-01T08:46:39.493Z,39.31
2023-03-01T08:50:52.400Z,39.79
2023-03-01T08:55:05.138Z,40.01
2023-03-01T08:59:18.834Z,39.23
2023-03-01T09:03:31.376Z,39.77
2023-03-01T09:07:44.081Z,39.06
2023-03-01T09:11:57.046Z,38.16
2023-03-01T09:16:10.229Z,37.65
2023-03-01T09:20:23.452Z,37.23
2023-03-01T09:24:35.820Z,37.22
2023-03-01T09:28:52.085Z,36.43
2023-03-01T09:33:04.641Z,35.98
2023-03-01T09:37:16.958Z,34.39
2023-03-01T09:41:43.991Z,35.03
2023-03-01T09:46:00.199Z,36.03
2023-03-01T09:50:20.853Z,35.71
2023-03-01T09:54:33.436Z,35.23
2023-03-01T09:59:23.358Z,35.95
2023-03-01T10:03:46.627Z,35.38
2023-03-01T10:08:05.212Z,35.50
2023-03-01T10:12:21.964Z,35.72
2023-03-01T10:16:55.837Z,34.90
2023-03-01T10:21:21.690Z,34.55
2023-03-01T10:25:42.451Z,34.04
2023-03-01T10:30:27.828Z,35.09
2023-03-01T10:34:43.130Z,36.16
2023-03-01T10:38:58.967Z,36.30
2023-03-01T10:43:14.787Z,35.17
2023-03-01T10:47:29.175Z,33.78
2023-03-01T10:51:43.835Z,33.65
2023-03-01T10:56:16.739Z,33.24
2023-03-01T11:00:29.221Z,33.71
2023-03-01T11:04:57.299Z,33.65
2023-03-01T11:09:28.580Z,32.80
2023-03-01T11:14:03.171Z,31.71
2023-03-01T11:18:44.339Z,30.07
2023-03-01T11:23:14.377Z,32.87
2023-03-01T11:27:30.299Z,32.41
2023-03-01T11:31:56.743Z,31.98
2023-03-01T11:36:32.596Z,30.85
2023-03-01T11:40:50.066Z,31.05
2023-03-01T11:45:07.888Z,32.36
2023-03-01T11:49:41.609Z,32.30
2023-03-01T11:54:20.215Z,33.41
2023-03-01T11:58:55.444Z,34.00
2023-03-01T12:03:22.729Z,34.26
2023-03-01T12:07:55.509Z,32.44
2023-03-01T12:12:44.656Z,33.03
2023-03-01T12:17:34.435Z,32.31
2023-03-01T12:22:08.122Z,32.19
2023-03-01T12:26:20.580Z,32.79
2023-03-01T12:30:44.719Z,33.98
2023-03-01T12:35:15.730Z,34.16
2023-03-01T12:39:42.381Z,34.72
2023-03-01T12:44:13.579Z,35.34
2023-03-01T12:48:31.606Z,35.84
2023-03-01T12:52:59.689Z,36.13
2023-03-01T12:57:38.355Z,44.09
2023-03-01T13:02:16.933Z,46.48
2023-03-01T13:06:43.294Z,47.32
2023-03-01T13:11:07.116Z,49.16
2023-03-01T13:15:25.596Z,50.55
2023-03-01T13:19:38.125Z,50.06
2023-03-01T13:23:50.554Z,50.37
2023-03-01T13:28:39.467Z,50.40
2023-03-01T13:32:52.133Z,50.84
2023-03-01T13:37:20.950Z,50.83
2023-03-01T13:41:48.009Z,52.28
2023-03-01T13:46:01.322Z,51.57
2023-03-01T13:50:40.647Z,51.18
2023-03-01T13:54:55.073Z,51.60
2023-03-01T13:59:16.164Z,50.63
2023-03-01T14:03:31.029Z,51.93
2023-03-01T14:07:43.415Z,51.84
2023-03-01T14:12:07.690Z,51.65
2023-03-01T14:16:41.937Z,52.17
2023-03-01T14:20:54.376Z,52.28
2023-03-01T14:25:21.774Z,51.72
2023-03-01T14:29:39.659Z,51.84
2023-03-01T14:34:00.729Z,51.85
2023-03-01T14:38:24.935Z,51.92
2023-03-01T14:42:38.154Z,51.79
2023-03-01T14:46:58.448Z,53.20
2023-03-01T14:51:13.613Z,53.25
2023-03-01T14:55:43.030Z,53.57
2023-03-01T15:00:04.347Z,53.92
2023-03-01T15:04:17.272Z,53.91
2023-03-01T15:08:34.284Z,54.58
2023-03-01T15:12:46.645Z,53.80
2023-03-01T15:16:59.253Z,54.69
2023-03-01T15:21:31.345Z,54.56
2023-03-01T15:25:46.275Z,55.16
2023-03-01T15:30:03.507Z,56.33
2023-03-01T15:34:33.382Z,56.60
2023-03-01T15:38:59.189Z,56.71
2023-03-01T15:43:43.591Z,57.75
2023-03-01T15:48:21.589Z,58.35
2023-03-01T15:52:42.085Z,58.40
2023-03-01T15:56:54.785Z,58.68
2023-03-01T16:01:14.153Z,58.92
2023-03-01T16:05:30.128Z,59.08
2023-03-01T16:09:43.500Z,59.35
2023-03-01T16:13:56.115Z,60.21
2023-03-01T16:18:11.479Z,60.50
2023-03-01T16:22:26.424Z,60.36
2023-03-01T16:26:39.415Z,60.34
2023-03-01T16:30:52.226Z,60.49
2023-03-01T16:35:05.171Z,61.57
2023-03-01T16:39:18.005Z,62.04
2023-03-01T16:43:31.561Z,61.77
2023-03-01T16:47:44.058Z,62.03
2023-03-01T16:51:56.465Z,61.75
2023-03-01T16:56:11.423Z,62.51
2023-03-01T17:00:24.237Z,62.63
2023-03-01T17:04:37.000Z,62.74
2023-03-01T17:08:49.542Z,62.85
2023-03-01T17:13:02.025Z,62.44
2023-03-01T17:17:15.608Z,61.94
2023-03-01T17:21:27.944Z,64.23
2023-03-01T17:25:47.067Z,64.67
2023-03-01T17:29:59.382Z,65.24
2023-03-01T17:34:11.899Z,65.53
2023-03-01T17:38:24.445Z,66.10
2023-03-01T17:42:36.901Z,65.74
2023-03-01T17:46:49.267Z,65.57
2023-03-01T17:51:07.379Z,64.88
2023-03-01T17:55:19.916Z,65.48
2023-03-01T17:59:33.775Z,66.37
2023-03-01T18:03:47.703Z,66.54
2023-03-01T18:08:00.329Z,67.18
2023-03-01T18:12:12.899Z,67.23
2023-03-01T18:16:25.357Z,67.37
2023-03-01T18:20:37.746Z,68.50
2023-03-01T18:24:53.148Z,68.73
2023-03-01T18:29:05.713Z,68.51
2023-03-01T18:33:17.949Z,69.07
2023-03-01T18:37:30.323Z,69.76
2023-03-01T18:41:42.684Z,69.49
2023-03-01T18:45:59.489Z,69.33
2023-03-01T18:50:12.334Z,68.99
2023-03-01T18:54:24.716Z,69.22
2023-03-01T19:02:51.321Z,70.51
2023-03-01T19:07:04.263Z,71.94
2023-03-01T19:11:19.643Z,72.68
2023-03-01T19:15:32.094Z,73.17
2023-03-01T19:19:45.937Z,74.68
2023-03-01T19:23:59.760Z,75.05
2023-03-01T19:28:12.188Z,75.37
2023-03-01T19:32:24.575Z,76.49
2023-03-01T19:36:37.173Z,77.24
2023-03-01T19:40:49.717Z,77.16
2023-03-01T19:45:02.216Z,78.09
2023-03-01T19:49:14.631Z,77.04
2023-03-01T19:53:27.315Z,75.68
2023-03-01T19:57:42.065Z,74.76
2023-03-01T20:01:56.247Z,77.85
2023-03-01T20:06:13.290Z,79.85
2023-03-01T20:10:26.865Z,79.60
2023-03-01T20:14:39.776Z,81.17
2023-03-01T20:18:54.571Z,81.48
2023-03-01T20:23:07.370Z,81.40
2023-03-01T20:27:19.870Z,83.83
2023-03-01T20:31:32.399Z,82.43
2023-03-01T20:35:44.888Z,83.12
2023-03-01T20:39:57.341Z,82.21
2023-03-01T20:44:10.044Z,84.87
2023-03-01T20:48:22.804Z,83.46
2023-03-01T20:52:45.837Z,81.97
2023-03-01T20:56:59.685Z,86.15
2023-03-01T21:01:18.262Z,82.27
2023-03-01T21:05:31.748Z,84.43
2023-03-01T21:09:45.099Z,85.16
2023-03-01T21:13:57.636Z,83.72
2023-03-01T21:18:10.034Z,86.24
2023-03-01T21:22:22.511Z,86.23
2023-03-01T21:26:35.074Z,82.96
2023-03-01T21:30:47.577Z,85.73
2023-03-01T21:35:00.304Z,83.56
2023-03-01T21:39:15.399Z,83.45
2023-03-01T21:43:28.136Z,87.80
2023-03-01T21:47:40.748Z,83.21
2023-03-01T21:51:53.128Z,84.42
2023-03-01T21:56:06.612Z,86.93
2023-03-01T22:00:23.580Z,85.12
2023-03-01T22:04:36.005Z,83.09
2023-03-01T22:08:52.186Z,82.56
2023-03-01T22:13:04.594Z,81.73
2023-03-01T22:17:16.959Z,81.39
2023-03-01T22:21:29.361Z,82.31
2023-03-01T22:25:42.655Z,84.13
2023-03-01T22:29:54.917Z,84.31
2023-03-01T22:34:07.761Z,83.38
2023-03-01T22:38:20.182Z,83.75
2023-03-01T22:42:32.794Z,83.64
2023-03-01T22:46:46.980Z,84.39
2023-03-01T22:50:59.300Z,84.35
2023-03-01T22:55:11.995Z,83.34
2023-03-01T22:59:24.642Z,83.53
2023-03-01T23:03:37.018Z,84.52
2023-03-01T23:07:49.486Z,83.27
2023-03-01T23:12:06.887Z,82.69
2023-03-01T23:16:20.292Z,82.99
2023-03-01T23:20:36.487Z,82.51
2023-03-01T23:24:49.178Z,82.65
2023-03-01T23:29:01.607Z,82.81
2023-03-01T23:33:14.092Z,83.60
2023-03-01T23:37:31.142Z,83.99
2023-03-01T23:41:43.618Z,83.42
2023-03-01T23:45:56.117Z,81.60
2023-03-01T23:50:09.778Z,82.62
2023-03-01T23:54:25.170Z,82.07
2023-03-01T23:58:37.666Z,82.80
